Time;durP1;ratioP1;P1;durP2;ratioP2;P2;SDS_P1;SDS_P2;PMS_P1;PMS_P2;Temp;Humidity;BMP_temperature;BMP_pressure;BME280_temperature;BME280_humidity;BME280_pressure;Samples;Min_cycle;Max_cycle;Signal;HPM_P1;HPM_P2
2023/08/22 00:01:20;;;;;;;;;;;;;;;25.36;54.08;100982.72;7400612;19;1282;-47
2023/08/22 00:03:49;;;;;;;;;;;;;;;25.38;55.66;100975.28;7400832;19;1387;-46
2023/08/22 00:06:17;;;;;;;;;;;;;;;25.33;55.48;100975.81;7400395;19;1472;-47
2023/08/22 00:08:45;;;;;;;;;;;;;;;25.38;55.04;100975.28;7399493;19;1508;-47
2023/08/22 00:11:13;;;;;;;;;;;;;;;25.38;54.05;100980.69;7399275;19;1218;-46
2023/08/22 00:13:42;;;;;;;;;;;;;;;25.38;54.01;100973.41;7398946;19;1269;-47
2023/08/22 00:16:13;;;;;;;;;;;;;;;25.38;54.37;100991.53;7399860;19;1311;-47
2023/08/22 00:18:41;;;;;;;;;;;;;;;25.39;53.63;100983.22;7397906;19;1848;-46
2023/08/22 00:21:09;;;;;;;;;;;;;;;25.43;53.86;100978.31;7399404;19;1127;-47
2023/08/22 00:23:38;;;;;;;;;;;;;;;25.39;54.14;100990.53;7398638;19;1341;-47
2023/08/22 00:26:06;;;;;;;;;;;;;;;25.38;53.55;100976.13;7400344;19;1142;-47
2023/08/22 00:28:34;;;;;;;;;;;;;;;25.38;53.63;100969.88;7398509;19;1398;-47
2023/08/22 00:31:02;;;;;;;;;;;;;;;25.37;53.99;100969.03;7398639;19;1476;-47
2023/08/22 00:33:33;;;;;;;;;;;;;;;25.36;54.05;100977.31;7398219;19;1321;-47
2023/08/22 00:36:02;;;;;;;;;;;;;;;25.36;54.58;100971.91;7398127;19;1237;-47
2023/08/22 00:38:30;;;;;;;;;;;;;;;25.33;53.94;100972.25;7396777;19;1857;-47
2023/08/22 00:40:59;;;;;;;;;;;;;;;25.40;53.84;100990.31;7399218;19;1421;-46
2023/08/22 00:43:27;;;;;;;;;;;;;;;25.39;53.71;100988.66;7399134;19;1343;-46
2023/08/22 00:45:55;;;;;;;;;;;;;;;25.38;53.61;100976.13;7398245;19;1240;-47
2023/08/22 00:48:23;;;;;;;;;;;;;;;25.41;53.44;100983.06;7396742;19;1457;-47
2023/08/22 00:50:55;;;;;;;;;;;;;;;25.39;53.51;100975.13;7399389;19;1105;-46
2023/08/22 00:53:24;;;;;;;;;;;;;;;25.38;53.32;100980.69;7398085;19;1166;-46
2023/08/22 00:55:52;;;;;;;;;;;;;;;25.35;53.55;100973.78;7397547;19;1321;-45
2023/08/22 00:58:20;;;;;;;;;;;;;;;25.38;53.03;100984.25;7397529;19;1838;-46
2023/08/22 01:00:49;;;;;;;;;;;;;;;25.34;53.29;100984.75;7397048;19;1576;-47
2023/08/22 01:03:17;;;;;;;;;;;;;;;25.32;53.48;100984.94;7397608;19;1181;-46
2023/08/22 01:06:00;;;;;;;;;;;;;;;25.33;53.56;100989.34;7397835;19;1220;-46
2023/08/22 01:08:34;;;;;;;;;;;;;;;25.36;53.26;100980.84;7398015;19;1206;-47
2023/08/22 01:11:11;;;;;;;;;;;;;;;25.40;53.17;100990.31;7397379;19;1254;-46
2023/08/22 01:13:42;;;;;;;;;;;;;;;25.35;53.48;100992.72;7396376;19;1456;-47
2023/08/22 01:16:10;;;;;;;;;;;;;;;25.39;53.58;100985.09;7398105;19;1304;-47
2023/08/22 01:18:41;;;;;;;;;;;;;;;25.36;53.39;100978.16;7397023;19;1834;-47
2023/08/22 01:21:09;;;;;;;;;;;;;;;25.38;53.54;100986.94;7398220;19;1250;-47
2023/08/22 01:23:40;;;;;;;;;;;;;;;25.37;53.33;100987.97;7397280;19;1409;-47
2023/08/22 01:26:09;;;;;;;;;;;;;;;25.41;53.38;100996.59;7398576;19;1131;-46
2023/08/22 01:28:39;;;;;;;;;;;;;;;25.31;53.25;100971.59;7397569;19;1178;-46
2023/08/22 01:31:13;;;;;;;;;;;;;;;25.33;53.27;100993.91;7397698;19;1550;-47
2023/08/22 01:33:45;;;;;;;;;;;;;;;25.30;53.36;100984.25;7396054;19;1158;-47
2023/08/22 01:36:13;;;;;;;;;;;;;;;25.35;53.38;100981.06;7397707;19;1321;-47
2023/08/22 01:38:45;;;;;;;;;;;;;;;25.33;53.14;100997.47;7395282;19;1838;-46
2023/08/22 01:41:14;;;;;;;;;;;;;;;25.29;53.26;100984.47;7397292;19;1225;-47
2023/08/22 01:43:44;;;;;;;;;;;;;;;25.32;53.17;100993.06;7396386;19;1095;-47
2023/08/22 01:46:13;;;;;;;;;;;;;;;25.38;53.43;100994.22;7396311;19;1326;-47
2023/08/22 01:48:41;;;;;;;;;;;;;;;25.40;53.37;101006.56;7395642;19;1634;-47
2023/08/22 01:51:09;;;;;;;;;;;;;;;25.33;53.26;101002.03;7397009;19;1109;-47
2023/08/22 01:53:37;;;;;;;;;;;;;;;25.36;53.42;100998.97;7394771;19;1406;-46
2023/08/22 01:56:08;;;;;;;;;;;;;;;25.32;53.40;100998.47;7395861;19;1162;-46
2023/08/22 01:58:36;;;;;;;;;;;;;;;25.29;53.24;101000.69;7394157;19;1868;-47
2023/08/22 02:01:10;;;;;;;;;;;;;;;25.33;53.27;101002.88;7397033;19;1167;-47
2023/08/22 02:03:38;;;;;;;;;;;;;;;25.29;53.15;100998.81;7394362;19;1264;-46
2023/08/22 02:06:07;;;;;;;;;;;;;;;25.30;53.48;101002.38;7395309;19;1265;-46
2023/08/22 02:08:35;;;;;;;;;;;;;;;25.28;53.30;100989.00;7395760;19;1229;-47
2023/08/22 02:11:03;;;;;;;;;;;;;;;25.30;53.22;101002.38;7396208;19;1268;-46
2023/08/22 02:13:34;;;;;;;;;;;;;;;25.27;53.35;100989.16;7394032;19;1155;-46
2023/08/22 02:16:03;;;;;;;;;;;;;;;25.25;53.37;100981.25;7396286;19;1416;-47
2023/08/22 02:18:31;;;;;;;;;;;;;;;25.28;53.30;100999.00;7395342;19;1842;-47
2023/08/22 02:21:00;;;;;;;;;;;;;;;25.26;53.32;100977.50;7395641;19;1355;-47
2023/08/22 02:23:31;;;;;;;;;;;;;;;25.32;53.30;100982.22;7396088;19;1194;-47
2023/08/22 02:25:59;;;;;;;;;;;;;;;25.31;53.42;100983.25;7397098;19;1024;-47
2023/08/22 02:28:27;;;;;;;;;;;;;;;25.30;53.14;100986.97;7395686;19;1997;-46
2023/08/22 02:30:59;;;;;;;;;;;;;;;25.33;53.43;100978.50;7395266;19;1264;-47
2023/08/22 02:33:27;;;;;;;;;;;;;;;24.91;53.13;100930.84;7395323;19;1210;-47
2023/08/22 02:35:56;;;;;;;;;;;;;;;25.24;53.21;100993.06;7395897;19;1194;-47
2023/08/22 02:38:24;;;;;;;;;;;;;;;25.24;53.27;100995.78;7395127;19;1838;-46
2023/08/22 02:40:52;;;;;;;;;;;;;;;25.25;53.25;100992.06;7394984;19;1297;-47
2023/08/22 02:43:21;;;;;;;;;;;;;;;25.25;53.40;100994.78;7395133;19;1398;-47
2023/08/22 02:45:49;;;;;;;;;;;;;;;25.27;53.32;100995.44;7394855;19;1413;-46
2023/08/22 02:48:20;;;;;;;;;;;;;;;25.24;53.25;100987.66;7394654;19;1390;-46
2023/08/22 02:50:50;;;;;;;;;;;;;;;25.28;52.96;101002.53;7393581;19;1410;-47
2023/08/22 02:53:19;;;;;;;;;;;;;;;25.23;53.07;100983.28;7394233;19;1413;-47
2023/08/22 02:55:49;;;;;;;;;;;;;;;25.22;53.28;101002.38;7393756;19;1461;-46
2023/08/22 02:58:17;;;;;;;;;;;;;;;25.25;53.35;101002.91;7393689;19;1857;-47
2023/08/22 03:00:46;;;;;;;;;;;;;;;25.26;53.12;100993.75;7394844;19;1230;-47
2023/08/22 03:03:15;;;;;;;;;;;;;;;25.29;53.13;100998.81;7394428;19;1766;-47
2023/08/22 03:05:46;;;;;;;;;;;;;;;25.27;53.10;101011.69;7393812;19;1289;-47
2023/08/22 03:08:14;;;;;;;;;;;;;;;25.29;53.17;101017.78;7394850;19;1253;-47
2023/08/22 03:10:43;;;;;;;;;;;;;;;25.27;53.46;101017.09;7394521;19;1257;-47
2023/08/22 03:13:11;;;;;;;;;;;;;;;25.26;53.41;101009.97;7394042;19;1209;-48
2023/08/22 03:15:39;;;;;;;;;;;;;;;25.27;53.31;101025.22;7394893;19;1368;-46
2023/08/22 03:18:07;;;;;;;;;;;;;;;25.34;53.22;101034.34;7393211;19;1849;-46
2023/08/22 03:20:36;;;;;;;;;;;;;;;25.30;53.51;101022.16;7393551;19;1325;-47
2023/08/22 03:23:07;;;;;;;;;;;;;;;25.28;53.29;101026.06;7394150;19;1469;-47
2023/08/22 03:25:36;;;;;;;;;;;;;;;25.29;53.46;101034.00;7400557;19;1127;-47
2023/08/22 03:28:04;;;;;;;;;;;;;;;25.29;53.35;101041.31;7401182;19;1284;-47
2023/08/22 03:30:32;;;;;;;;;;;;;;;25.24;53.52;101039.09;7401520;19;1525;-47
2023/08/22 03:33:00;;;;;;;;;;;;;;;25.18;53.33;101031.63;7401112;19;1416;-47
2023/08/22 03:35:29;;;;;;;;;;;;;;;25.19;53.55;101034.16;7398758;19;1205;-47
2023/08/22 03:37:57;;;;;;;;;;;;;;;25.24;53.42;101030.13;7401989;19;1381;-47
2023/08/22 03:40:28;;;;;;;;;;;;;;;25.23;53.42;101052.78;7399239;19;1857;-47
2023/08/22 03:42:56;;;;;;;;;;;;;;;25.15;53.80;101029.25;7401625;19;1171;-47
2023/08/22 03:45:24;;;;;;;;;;;;;;;25.17;53.66;101028.06;7400792;19;1212;-47
2023/08/22 03:47:53;;;;;;;;;;;;;;;25.22;53.56;101035.69;7400920;19;1330;-47
2023/08/22 03:50:21;;;;;;;;;;;;;;;25.25;53.44;101024.56;7400692;19;1357;-47
2023/08/22 03:52:49;;;;;;;;;;;;;;;25.24;53.53;101038.25;7400934;19;1499;-46
2023/08/22 03:55:18;;;;;;;;;;;;;;;25.31;53.40;101040.09;7401161;19;1042;-47
2023/08/22 03:57:49;;;;;;;;;;;;;;;25.27;53.51;101041.47;7397864;19;1484;-46
2023/08/22 04:00:17;;;;;;;;;;;;;;;25.27;53.59;101033.34;7397055;19;1845;-46
2023/08/22 04:02:46;;;;;;;;;;;;;;;25.39;53.45;101037.38;7399643;19;1863;-47
2023/08/22 04:05:14;;;;;;;;;;;;;;;25.37;53.50;101034.00;7398525;19;1299;-47
2023/08/22 04:07:42;;;;;;;;;;;;;;;25.36;53.76;101034.16;7399752;19;1233;-46
2023/08/22 04:10:11;;;;;;;;;;;;;;;25.28;53.98;101040.44;7399387;19;1534;-47
2023/08/22 04:12:39;;;;;;;;;;;;;;;25.23;53.76;101034.69;7400222;19;1305;-46
2023/08/22 04:15:11;;;;;;;;;;;;;;;25.35;53.83;101057.69;7398237;19;1249;-46
2023/08/22 04:17:41;;;;;;;;;;;;;;;25.57;53.05;101049.88;7399349;19;1384;-47
2023/08/22 04:20:10;;;;;;;;;;;;;;;25.64;52.84;101040.03;7397383;19;1855;-47
2023/08/22 04:22:39;;;;;;;;;;;;;;;25.89;52.45;101037.28;7400224;19;1187;-47
2023/08/22 04:25:09;;;;;;;;;;;;;;;26.37;51.13;101047.06;7400130;19;1214;-47
2023/08/22 04:27:37;;;;;;;;;;;;;;;26.85;49.86;101049.69;7399085;19;1259;-46
2023/08/22 04:30:06;;;;;;;;;;;;;;;27.18;49.21;101049.44;7399551;19;1326;-47
2023/08/22 04:32:38;;;;;;;;;;;;;;;27.52;48.30;101067.13;7398952;19;1265;-47
2023/08/22 04:35:07;;;;;;;;;;;;;;;27.44;48.92;101065.34;7396057;19;1202;-47
2023/08/22 04:37:35;;;;;;;;;;;;;;;26.90;49.78;101050.00;7399819;19;1205;-47
2023/08/22 04:40:03;;;;;;;;;;;;;;;26.41;51.09;101052.97;7397649;19;1853;-47
2023/08/22 04:42:32;;;;;;;;;;;;;;;26.19;51.81;101055.47;7397662;19;1478;-47
2023/08/22 04:45:00;;;;;;;;;;;;;;;26.10;52.03;101056.53;7397902;19;1583;-47
2023/08/22 04:47:28;;;;;;;;;;;;;;;26.09;52.08;101068.38;7398055;19;1531;-47
2023/08/22 04:49:59;;;;;;;;;;;;;;;25.89;53.23;101058.94;7396823;19;1415;-47
2023/08/22 04:52:27;;;;;;;;;;;;;;;25.76;54.73;101068.44;7396271;19;1257;-48
2023/08/22 04:54:56;;;;;;;;;;;;;;;25.86;53.66;101075.53;7396690;19;1722;-47
2023/08/22 04:57:26;;;;;;;;;;;;;;;25.82;53.10;101066.06;7395697;19;1268;-46
2023/08/22 04:59:56;;;;;;;;;;;;;;;25.75;54.68;101074.88;7393607;19;1819;-46
2023/08/22 05:02:24;;;;;;;;;;;;;;;25.74;54.75;101067.75;7396474;19;1155;-46
2023/08/22 05:04:53;;;;;;;;;;;;;;;25.73;53.56;101070.66;7393371;19;1136;-47
2023/08/22 05:07:24;;;;;;;;;;;;;;;25.59;55.13;101067.66;7394573;19;1240;-46
2023/08/22 05:09:52;;;;;;;;;;;;;;;25.65;54.85;101079.66;7393699;19;1457;-46
2023/08/22 05:12:20;;;;;;;;;;;;;;;25.63;53.87;101070.84;7393430;19;1248;-47
2023/08/22 05:14:48;;;;;;;;;;;;;;;25.57;55.65;101066.97;7393426;19;1325;-46
2023/08/22 05:17:18;;;;;;;;;;;;;;;25.38;56.11;101084.41;7393040;19;1412;-47
2023/08/22 05:19:46;;;;;;;;;;;;;;;25.29;56.12;101080.03;7394182;19;1850;-46
2023/08/22 05:22:14;;;;;;;;;;;;;;;25.36;55.68;101083.72;7397749;19;1458;-46
2023/08/22 05:24:45;;;;;;;;;;;;;;;25.20;56.12;101079.13;7398084;19;1388;-47
2023/08/22 05:27:14;;;;;;;;;;;;;;;25.23;56.01;101075.31;7397731;19;1321;-46
2023/08/22 05:29:42;;;;;;;;;;;;;;;25.47;55.99;101076.31;7395283;19;1491;-47
2023/08/22 05:32:10;;;;;;;;;;;;;;;25.43;56.00;101086.63;7396348;19;1187;-46
2023/08/22 05:34:39;;;;;;;;;;;;;;;25.40;56.04;101076.13;7395330;19;1413;-47
2023/08/22 05:37:07;;;;;;;;;;;;;;;25.47;56.24;101076.31;7395799;19;1305;-47
2023/08/22 05:39:35;;;;;;;;;;;;;;;25.55;56.31;101079.00;7394800;19;1852;-47
2023/08/22 05:42:06;;;;;;;;;;;;;;;25.60;56.23;101079.31;7395384;19;1315;-48
2023/08/22 05:44:35;;;;;;;;;;;;;;;25.57;56.45;101090.50;7394536;19;1309;-47
2023/08/22 05:47:04;;;;;;;;;;;;;;;25.58;55.93;101086.75;7393736;19;1290;-47
2023/08/22 05:49:33;;;;;;;;;;;;;;;25.52;56.19;101091.00;7393836;19;1211;-47
2023/08/22 06:05:06;;;;;;;;;;;;;;;25.59;56.38;101093.88;7429463;19;2775;-44
2023/08/22 06:07:34;;;;;;;;;;;;;;;25.70;56.14;101098.09;7431679;19;1238;-44
2023/08/22 06:10:03;;;;;;;;;;;;;;;25.76;56.58;101097.41;7429388;19;1794;-44
2023/08/22 06:12:31;;;;;;;;;;;;;;;25.78;56.44;101095.34;7431637;19;1846;-44
2023/08/22 06:14:59;;;;;;;;;;;;;;;25.90;56.03;101074.16;7429838;19;1496;-42
2023/08/22 06:17:27;;;;;;;;;;;;;;;25.99;55.91;101092.13;7431049;19;1535;-44
2023/08/22 06:19:56;;;;;;;;;;;;;;;25.96;57.13;101089.75;7430687;19;1515;-44
2023/08/22 06:22:27;;;;;;;;;;;;;;;26.01;56.58;101090.09;7431905;19;1135;-43
2023/08/22 06:24:55;;;;;;;;;;;;;;;26.08;56.30;101082.94;7431287;19;1324;-44
2023/08/22 06:27:23;;;;;;;;;;;;;;;26.13;56.83;101087.84;7430579;19;1551;-42
2023/08/22 06:29:51;;;;;;;;;;;;;;;26.11;56.90;101074.47;7426602;19;1262;-44
2023/08/22 06:32:22;;;;;;;;;;;;;;;26.26;57.28;101081.84;7430153;19;1875;-43
2023/08/22 06:34:51;;;;;;;;;;;;;;;26.17;57.67;101081.06;7430289;19;1288;-44
2023/08/22 06:37:19;;;;;;;;;;;;;;;26.27;57.33;101076.28;7428998;19;1473;-44
2023/08/22 06:39:50;;;;;;;;;;;;;;;26.31;57.46;101079.47;7428735;19;1205;-44
2023/08/22 06:42:18;;;;;;;;;;;;;;;26.35;56.80;101086.22;7430305;19;1389;-43
2023/08/22 06:44:47;;;;;;;;;;;;;;;26.39;57.13;101084.84;7423845;19;1445;-45
2023/08/22 06:47:15;;;;;;;;;;;;;;;26.28;56.93;101088.81;7426760;19;1397;-46
2023/08/22 06:49:43;;;;;;;;;;;;;;;26.19;58.61;101079.84;7426216;19;1429;-43
2023/08/22 06:52:11;;;;;;;;;;;;;;;26.14;58.13;101092.25;7429011;19;1293;-44
2023/08/22 06:54:40;;;;;;;;;;;;;;;26.03;59.35;101100.78;7423286;19;1837;-44
2023/08/22 06:57:11;;;;;;;;;;;;;;;25.89;58.59;101084.16;7429597;19;1448;-43
2023/08/22 06:59:39;;;;;;;;;;;;;;;26.02;59.71;101074.66;7428664;19;1293;-44
2023/08/22 07:02:07;;;;;;;;;;;;;;;26.06;60.14;101081.44;7428289;19;1566;-43
2023/08/22 07:04:35;;;;;;;;;;;;;;;26.14;59.75;101078.69;7414461;19;1690;-44
2023/08/22 07:07:04;;;;;;;;;;;;;;;26.18;61.06;101070.06;7398436;19;1423;-43
2023/08/22 07:09:32;;;;;;;;;;;;;;;26.09;58.62;101076.50;7398105;19;1390;-43
2023/08/22 07:12:01;;;;;;;;;;;;;;;25.90;59.10;101072.31;7395356;19;1482;-44
2023/08/22 07:14:31;;;;;;;;;;;;;;;25.80;61.61;101061.69;7396540;19;1988;-44
2023/08/22 07:17:00;;;;;;;;;;;;;;;25.87;60.76;101085.38;7400449;19;1281;-44
2023/08/22 07:19:28;;;;;;;;;;;;;;;26.10;62.53;101056.53;7400223;19;1514;-43
2023/08/22 07:21:58;;;;;;;;;;;;;;;25.79;60.74;101070.81;7400534;19;1517;-43
2023/08/22 07:24:26;;;;;;;;;;;;;;;25.63;60.73;101068.16;7401028;19;1337;-44
2023/08/22 07:26:54;;;;;;;;;;;;;;;25.54;62.37;101069.16;7400367;19;1436;-43
2023/08/22 07:29:22;;;;;;;;;;;;;;;25.42;59.05;101065.13;7400445;19;1197;-44
2023/08/22 07:31:58;;;;;;;;;;;;;;;25.30;59.53;101059.22;7400269;19;1490;-44
2023/08/22 07:34:26;;;;;;;;;;;;;;;25.28;57.71;101056.66;7397547;19;1850;-43
2023/08/22 07:36:54;;;;;;;;;;;;;;;25.29;57.39;101063.78;7397957;19;1467;-44
2023/08/22 07:39:23;;;;;;;;;;;;;;;25.36;57.94;101059.38;7395890;19;1593;-43
2023/08/22 07:41:51;;;;;;;;;;;;;;;25.02;58.70;101070.34;7395177;19;1476;-44
2023/08/22 07:44:19;;;;;;;;;;;;;;;24.71;57.95;101048.50;7399286;19;1529;-44
2023/08/22 07:46:48;;;;;;;;;;;;;;;24.47;57.90;101071.75;7397383;19;1760;-44
2023/08/22 07:49:18;;;;;;;;;;;;;;;24.50;57.73;101062.44;7397364;19;1490;-44
2023/08/22 07:51:47;;;;;;;;;;;;;;;24.54;57.55;101053.03;7401082;19;992;-44
2023/08/22 07:54:15;;;;;;;;;;;;;;;24.31;57.72;101058.16;7394988;19;1864;-44
2023/08/22 07:56:44;;;;;;;;;;;;;;;24.42;57.74;101052.47;7398314;19;1384;-42
2023/08/22 07:59:13;;;;;;;;;;;;;;;24.43;57.59;101051.44;7396089;19;1818;-44
2023/08/22 08:01:41;;;;;;;;;;;;;;;24.51;56.94;101050.66;7396029;19;961;-42
2023/08/22 08:04:10;;;;;;;;;;;;;;;24.45;56.93;101052.13;7394781;19;1318;-44
2023/08/22 08:06:41;;;;;;;;;;;;;;;24.43;57.09;101059.53;7395850;19;1832;-44
2023/08/22 08:09:11;;;;;;;;;;;;;;;24.32;57.83;101044.47;7395074;19;1582;-44
2023/08/22 08:11:39;;;;;;;;;;;;;;;24.41;57.85;101050.75;7395071;19;1840;-44
2023/08/22 08:14:07;;;;;;;;;;;;;;;24.37;58.33;101035.88;7397676;19;1870;-44
2023/08/22 08:16:35;;;;;;;;;;;;;;;24.30;58.39;101046.50;7397277;19;1544;-44
2023/08/22 08:19:04;;;;;;;;;;;;;;;24.35;58.88;101043.31;7398595;19;1329;-44
2023/08/22 08:21:32;;;;;;;;;;;;;;;24.30;59.36;101041.09;7397403;19;1743;-44
2023/08/22 08:24:04;;;;;;;;;;;;;;;24.12;60.35;101032.25;7397938;19;1268;-42
2023/08/22 08:26:32;;;;;;;;;;;;;;;24.25;59.87;101048.00;7398933;19;1615;-44
2023/08/22 08:29:01;;;;;;;;;;;;;;;24.33;60.26;101040.78;7398205;19;1565;-43
2023/08/22 08:31:29;;;;;;;;;;;;;;;24.32;60.54;101039.09;7398733;19;1216;-44
2023/08/22 08:33:57;;;;;;;;;;;;;;;24.08;61.59;101053.34;7398816;19;1853;-44
2023/08/22 08:36:25;;;;;;;;;;;;;;;24.16;61.30;101045.28;7399427;19;1809;-44
2023/08/22 08:38:54;;;;;;;;;;;;;;;24.28;61.15;101053.09;7399760;19;1046;-43
2023/08/22 08:41:25;;;;;;;;;;;;;;;24.04;62.08;101043.88;7398797;19;1530;-44
2023/08/22 08:43:54;;;;;;;;;;;;;;;24.14;62.13;101044.59;7399143;19;1531;-44
2023/08/22 08:46:25;;;;;;;;;;;;;;;24.10;62.06;101035.13;7398646;19;1944;-44
2023/08/22 08:48:54;;;;;;;;;;;;;;;24.01;62.52;101036.94;7398386;19;1440;-44
2023/08/22 08:51:22;;;;;;;;;;;;;;;24.09;62.37;101022.59;7397992;19;1333;-42
2023/08/22 08:53:51;;;;;;;;;;;;;;;24.24;61.77;101040.91;7397573;19;1854;-44
2023/08/22 08:56:19;;;;;;;;;;;;;;;23.78;61.69;100954.81;7397782;19;1073;-44
2023/08/22 08:58:50;;;;;;;;;;;;;;;24.18;61.85;101032.44;7396114;19;1871;-42
2023/08/22 09:01:19;;;;;;;;;;;;;;;24.07;62.48;101030.03;7396381;19;1489;-44
2023/08/22 09:03:48;;;;;;;;;;;;;;;24.08;62.31;101029.03;7395961;19;1553;-44
2023/08/22 09:06:16;;;;;;;;;;;;;;;24.19;62.02;101017.06;7398708;19;1407;-44
2023/08/22 09:09:03;;;;;;;;;;;;;;;23.99;63.11;101016.50;7397764;19;1491;-43
2023/08/22 09:11:32;;;;;;;;;;;;;;;24.07;62.76;101013.81;7398254;19;1735;-44
2023/08/22 09:14:03;;;;;;;;;;;;;;;24.15;62.43;101032.78;7396799;19;1856;-44
2023/08/22 09:16:32;;;;;;;;;;;;;;;24.25;62.03;101016.41;7397988;19;1392;-43
2023/08/22 09:19:02;;;;;;;;;;;;;;;24.31;61.42;101009.50;7397756;19;1731;-44
2023/08/22 09:21:30;;;;;;;;;;;;;;;24.20;61.76;101046.63;7398394;19;972;-45
2023/08/22 09:24:08;;;;;;;;;;;;;;;24.23;61.52;101013.03;7396940;19;1787;-44
2023/08/22 09:26:36;;;;;;;;;;;;;;;24.25;61.55;101019.13;7397746;19;1873;-44
2023/08/22 09:29:11;;;;;;;;;;;;;;;24.09;62.19;101009.09;7396557;19;1747;-44
2023/08/22 09:31:40;;;;;;;;;;;;;;;24.07;61.94;101008.41;7396801;19;1724;-44
2023/08/22 09:34:09;;;;;;;;;;;;;;;24.08;62.17;101002.03;7394798;19;1847;-44
2023/08/22 09:36:44;;;;;;;;;;;;;;;24.14;61.73;100987.84;7395604;19;1369;-44
2023/08/22 09:39:16;;;;;;;;;;;;;;;23.89;62.67;100994.16;7395931;19;1352;-44
2023/08/22 09:41:44;;;;;;;;;;;;;;;24.10;61.86;100991.91;7395100;19;1467;-44
2023/08/22 09:44:16;;;;;;;;;;;;;;;24.17;61.39;100998.34;7397477;19;1743;-44
2023/08/22 09:46:44;;;;;;;;;;;;;;;24.07;61.32;100992.22;7397224;19;1700;-44
2023/08/22 09:49:16;;;;;;;;;;;;;;;24.13;61.56;100996.13;7396577;19;1769;-43
2023/08/22 09:51:45;;;;;;;;;;;;;;;24.12;61.60;101000.69;7397989;19;1029;-44
2023/08/22 09:54:14;;;;;;;;;;;;;;;24.09;61.63;100984.78;7393902;19;1846;-44
2023/08/22 09:56:43;;;;;;;;;;;;;;;24.11;61.56;100976.53;7396613;19;1326;-44
2023/08/22 09:59:13;;;;;;;;;;;;;;;24.16;61.31;100988.53;7396939;19;1906;-44
2023/08/22 10:01:44;;;;;;;;;;;;;;;24.08;61.44;100988.50;7398283;19;950;-43
2023/08/22 10:04:13;;;;;;;;;;;;;;;24.11;60.68;100988.16;7392634;19;1800;-43
2023/08/22 10:06:41;;;;;;;;;;;;;;;24.05;60.73;100966.38;7396463;19;1509;-44
2023/08/22 10:09:11;;;;;;;;;;;;;;;24.04;59.94;100973.63;7396925;19;1565;-44
2023/08/22 10:11:41;;;;;;;;;;;;;;;24.11;59.62;100984.63;7396385;19;1450;-43
2023/08/22 10:14:13;;;;;;;;;;;;;;;24.14;59.45;100979.75;7395755;19;1846;-43
2023/08/22 10:16:47;;;;;;;;;;;;;;;24.19;58.87;100974.72;7396560;19;1669;-44
2023/08/22 10:19:16;;;;;;;;;;;;;;;24.18;58.43;100973.00;7395875;19;1839;-44
2023/08/22 10:21:45;;;;;;;;;;;;;;;24.09;58.21;100959.63;7397741;19;1055;-44
2023/08/22 10:24:23;;;;;;;;;;;;;;;24.00;58.15;100965.00;7393121;19;1524;-42
2023/08/22 10:27:02;;;;;;;;;;;;;;;24.10;57.62;100964.88;7396348;19;1416;-44
2023/08/22 10:29:33;;;;;;;;;;;;;;;24.08;57.57;100961.50;7396589;19;1735;-44
2023/08/22 10:32:14;;;;;;;;;;;;;;;24.11;57.47;100963.84;7396313;19;1665;-44
2023/08/22 10:34:57;;;;;;;;;;;;;;;24.19;57.38;100974.72;7394585;19;1952;-44
2023/08/22 10:37:29;;;;;;;;;;;;;;;24.14;57.78;100974.34;7396102;19;2093;-44
2023/08/22 10:40:00;;;;;;;;;;;;;;;24.13;57.92;100969.09;7398705;19;1474;-44
2023/08/22 10:42:29;;;;;;;;;;;;;;;24.06;58.54;100962.69;7403402;19;1673;-43
2023/08/22 10:44:58;;;;;;;;;;;;;;;24.19;58.37;100965.72;7403354;19;1554;-44
2023/08/22 10:47:27;;;;;;;;;;;;;;;24.17;58.55;100960.50;7404329;19;979;-44
2023/08/22 10:49:55;;;;;;;;;;;;;;;24.23;58.87;100972.50;7403722;19;1989;-43
2023/08/22 10:52:37;;;;;;;;;;;;;;;24.10;59.09;100964.88;7402833;19;1464;-44
2023/08/22 10:55:08;;;;;;;;;;;;;;;24.11;59.19;100961.16;7399821;19;1921;-43
2023/08/22 10:57:38;;;;;;;;;;;;;;;24.10;59.43;100951.38;7401630;19;1371;-44
2023/08/22 11:00:13;;;;;;;;;;;;;;;23.96;59.87;100952.00;7401947;19;1803;-44
2023/08/22 11:02:42;;;;;;;;;;;;;;;24.04;59.92;100956.59;7400307;19;1707;-42
2023/08/22 11:05:12;;;;;;;;;;;;;;;24.07;59.83;100943.56;7400683;19;1958;-43
2023/08/22 11:07:46;;;;;;;;;;;;;;;24.17;59.33;100944.31;7402968;19;1780;-43
2023/08/22 11:10:15;;;;;;;;;;;;;;;24.18;59.61;100954.09;7402152;19;1568;-42
2023/08/22 11:12:45;;;;;;;;;;;;;;;24.11;59.57;100944.94;7398256;19;1476;-44
2023/08/22 11:15:13;;;;;;;;;;;;;;;24.10;60.24;100937.84;7398841;19;1859;-43
2023/08/22 11:17:43;;;;;;;;;;;;;;;23.93;60.90;100946.91;7401415;19;1256;-44
2023/08/22 11:20:12;;;;;;;;;;;;;;;24.02;60.38;100935.97;7400833;19;1206;-43
2023/08/22 11:22:44;;;;;;;;;;;;;;;24.11;60.09;100944.09;7400070;19;1828;-44
2023/08/22 11:25:13;;;;;;;;;;;;;;;24.12;60.21;100945.81;7400985;19;1579;-43
2023/08/22 11:27:41;;;;;;;;;;;;;;;24.15;60.12;100943.63;7398635;19;1640;-44
2023/08/22 11:30:11;;;;;;;;;;;;;;;24.17;59.82;100944.31;7400922;19;1529;-44
2023/08/22 11:32:40;;;;;;;;;;;;;;;24.14;60.26;100944.63;7400695;19;1201;-44
2023/08/22 11:35:10;;;;;;;;;;;;;;;24.15;60.07;100951.72;7398733;19;1851;-44
2023/08/22 11:37:39;;;;;;;;;;;;;;;24.10;60.16;100937.03;7400873;19;1275;-44
2023/08/22 11:40:14;;;;;;;;;;;;;;;24.08;59.90;100939.88;7399605;19;1629;-44
2023/08/22 11:42:42;;;;;;;;;;;;;;;24.12;59.83;100933.13;7393940;19;1512;-44
2023/08/22 11:45:13;;;;;;;;;;;;;;;24.13;59.87;100926.72;7399703;19;1520;-42
2023/08/22 11:47:42;;;;;;;;;;;;;;;24.09;60.25;100928.03;7398734;19;1321;-43
2023/08/22 11:50:13;;;;;;;;;;;;;;;24.03;60.71;100926.00;7401418;19;1532;-42
2023/08/22 11:52:42;;;;;;;;;;;;;;;23.93;60.61;100923.44;7398716;19;1217;-44
2023/08/22 11:55:14;;;;;;;;;;;;;;;23.90;60.45;100925.66;7398921;19;1893;-44
2023/08/22 11:57:43;;;;;;;;;;;;;;;24.05;60.36;100923.16;7400023;19;1542;-42
2023/08/22 12:00:13;;;;;;;;;;;;;;;24.01;60.55;100901.00;7400003;19;1960;-44
2023/08/22 12:02:44;;;;;;;;;;;;;;;23.95;60.59;100907.91;7398887;19;1614;-42
2023/08/22 12:05:29;;;;;;;;;;;;;;;24.05;60.37;100910.47;7400447;19;1399;-43
2023/08/22 12:07:58;;;;;;;;;;;;;;;24.03;60.62;100926.00;7401161;19;1573;-42
2023/08/22 12:10:39;;;;;;;;;;;;;;;23.94;61.29;100910.81;7400709;19;1630;-44
2023/08/22 12:13:08;;;;;;;;;;;;;;;24.08;60.71;100906.63;7399356;19;1560;-43
2023/08/22 12:15:36;;;;;;;;;;;;;;;24.15;60.14;100919.31;7398122;19;1925;-42
2023/08/22 12:18:05;;;;;;;;;;;;;;;24.14;60.46;100898.69;7400946;19;1805;-44
2023/08/22 12:20:33;;;;;;;;;;;;;;;24.02;60.76;100911.66;7398393;19;1518;-44
2023/08/22 12:23:03;;;;;;;;;;;;;;;23.91;61.07;100903.03;7397949;19;1268;-43
2023/08/22 12:25:35;;;;;;;;;;;;;;;23.97;60.75;100889.72;6880979;19;9999823;-42
2023/08/22 12:28:03;;;;;;;;;;;;;;;24.00;59.98;100908.28;7387007;19;1708;-44
2023/08/22 12:30:33;;;;;;;;;;;;;;;24.14;60.12;100897.84;7388799;19;1677;-44
2023/08/22 12:33:02;;;;;;;;;;;;;;;24.14;59.95;100879.78;7392934;19;1577;-44
2023/08/22 12:35:31;;;;;;;;;;;;;;;24.25;59.65;100888.56;7391659;19;1852;-44
2023/08/22 12:37:59;;;;;;;;;;;;;;;24.21;59.35;100897.03;7392074;19;1422;-44
2023/08/22 12:40:27;;;;;;;;;;;;;;;24.09;59.84;100883.97;7390594;19;1623;-43
2023/08/22 12:43:00;;;;;;;;;;;;;;;24.18;59.59;100885.69;7392709;19;1638;-43
2023/08/22 12:45:29;;;;;;;;;;;;;;;24.15;59.43;100876.06;7392522;19;1475;-44
2023/08/22 12:47:57;;;;;;;;;;;;;;;24.11;59.26;100890.06;7391795;19;1499;-44
2023/08/22 12:50:26;;;;;;;;;;;;;;;24.03;58.96;100880.09;7390654;19;1577;-44
2023/08/22 12:52:54;;;;;;;;;;;;;;;24.08;58.22;100888.56;7392608;19;1637;-43
2023/08/22 12:55:22;;;;;;;;;;;;;;;23.95;57.89;100882.78;7390574;19;1857;-43
2023/08/22 12:57:51;;;;;;;;;;;;;;;24.06;57.83;100871.66;7391795;19;1577;-43
2023/08/22 13:00:22;;;;;;;;;;;;;;;24.05;58.19;100878.06;7390014;19;1483;-43
2023/08/22 13:02:50;;;;;;;;;;;;;;;24.07;58.40;100884.13;7388292;19;1490;-42
2023/08/22 13:05:19;;;;;;;;;;;;;;;24.06;58.58;100858.16;7390494;19;1606;-43
2023/08/22 13:07:47;;;;;;;;;;;;;;;24.05;58.66;100856.44;7391325;19;1512;-43
2023/08/22 13:10:15;;;;;;;;;;;;;;;24.04;58.92;100868.28;7391630;19;1599;-43
2023/08/22 13:12:44;;;;;;;;;;;;;;;24.08;58.79;100864.25;7390161;19;1593;-44